createdAt,value
2023-05-18T00:00:42.210Z,60.93
2023-05-18T00:01:42.319Z,60.93
2023-05-18T00:02:42.517Z,61.35
2023-05-18T00:03:42.662Z,61.14
2023-05-18T00:04:42.581Z,60.96
2023-05-18T00:05:42.657Z,61.04
2023-05-18T00:06:42.716Z,61.37
2023-05-18T00:07:43.858Z,61.68
2023-05-18T00:08:42.880Z,61.79
2023-05-18T00:09:42.977Z,61.88
2023-05-18T00:10:43.084Z,61.99
2023-05-18T00:11:43.150Z,62.09
2023-05-18T00:12:43.271Z,62.60
2023-05-18T00:13:43.362Z,62.40
2023-05-18T00:14:43.424Z,62.40
2023-05-18T00:15:43.535Z,62.60
2023-05-18T00:16:43.723Z,62.51
2023-05-18T00:17:43.715Z,62.60
2023-05-18T00:18:43.851Z,62.71
2023-05-18T00:19:43.857Z,63.02
2023-05-18T00:20:43.915Z,63.05
2023-05-18T00:21:44.003Z,63.25
2023-05-18T00:22:44.073Z,63.25
2023-05-18T00:23:44.197Z,63.35
2023-05-18T00:24:44.227Z,63.25
2023-05-18T00:25:44.367Z,63.25
2023-05-18T00:26:44.393Z,63.67
2023-05-18T00:27:44.504Z,63.76
2023-05-18T00:28:44.595Z,63.67
2023-05-18T00:29:44.700Z,63.67
2023-05-18T00:30:44.721Z,63.87
2023-05-18T00:31:44.863Z,63.87
2023-05-18T00:32:44.901Z,63.76
2023-05-18T00:33:44.979Z,64.07
2023-05-18T00:34:45.082Z,64.07
2023-05-18T00:35:45.108Z,63.97
2023-05-18T00:36:45.236Z,64.18
2023-05-18T00:37:45.315Z,64.39
2023-05-18T00:38:45.404Z,64.48
2023-05-18T00:39:45.629Z,64.59
2023-05-18T00:40:45.586Z,64.28
2023-05-18T00:41:45.656Z,64.28
2023-05-18T00:42:45.723Z,64.21
2023-05-18T00:43:45.785Z,64.18
2023-05-18T00:44:45.873Z,64.83
2023-05-18T00:45:46.056Z,64.48
2023-05-18T00:46:46.033Z,64.83
2023-05-18T00:47:46.198Z,65.03
2023-05-18T00:48:46.209Z,65.03
2023-05-18T00:49:46.327Z,65.03
2023-05-18T00:50:46.387Z,65.13
2023-05-18T00:51:46.479Z,65.23
2023-05-18T00:52:46.622Z,65.23
2023-05-18T00:53:46.691Z,65.44
2023-05-18T00:54:46.744Z,65.65
2023-05-18T00:55:46.872Z,65.34
2023-05-18T00:56:46.917Z,65.44
2023-05-18T00:57:47.056Z,65.65
2023-05-18T00:58:47.108Z,65.65
2023-05-18T00:59:47.175Z,65.75
2023-05-18T01:00:47.261Z,65.75
2023-05-18T01:01:47.340Z,65.44
2023-05-18T01:02:47.504Z,65.75
2023-05-18T01:03:47.526Z,65.95
2023-05-18T01:04:47.592Z,65.86
2023-05-18T01:05:47.688Z,66.06
2023-05-18T01:06:47.795Z,65.95
2023-05-18T01:07:47.948Z,66.06
2023-05-18T01:08:48.171Z,65.75
2023-05-18T01:09:48.091Z,65.95
2023-05-18T01:10:48.075Z,65.99
2023-05-18T01:11:48.169Z,66.27
2023-05-18T01:12:48.305Z,66.06
2023-05-18T01:13:48.369Z,66.30
2023-05-18T01:14:48.465Z,66.50
2023-05-18T01:15:48.517Z,67.63
2023-05-18T01:16:48.585Z,67.33
2023-05-18T01:17:48.686Z,67.43
2023-05-18T01:18:48.752Z,67.22
2023-05-18T01:19:48.822Z,67.22
2023-05-18T01:20:48.879Z,67.12
2023-05-18T01:21:48.976Z,67.25
2023-05-18T01:22:49.080Z,67.97
2023-05-18T01:23:49.144Z,67.77
2023-05-18T01:24:49.237Z,67.84
2023-05-18T01:25:49.308Z,67.87
2023-05-18T01:26:49.354Z,67.57
2023-05-18T01:27:49.481Z,67.97
2023-05-18T01:28:49.536Z,67.87
2023-05-18T01:29:49.666Z,67.87
2023-05-18T01:30:49.736Z,68.18
2023-05-18T01:31:49.811Z,68.08
2023-05-18T01:32:49.923Z,68.18
2023-05-18T01:33:49.946Z,68.08
2023-05-18T01:34:50.071Z,68.08
2023-05-18T01:35:50.147Z,67.97
2023-05-18T01:36:50.258Z,68.08
2023-05-18T01:37:50.328Z,68.18
2023-05-18T01:38:50.384Z,68.18
2023-05-18T01:39:50.491Z,68.59
2023-05-18T01:40:50.543Z,68.80
2023-05-18T01:41:50.698Z,68.70
2023-05-18T01:42:50.725Z,68.59
2023-05-18T01:43:50.837Z,69.01
2023-05-18T01:44:50.923Z,69.01
2023-05-18T01:45:51.036Z,69.21
2023-05-18T01:46:51.272Z,69.11
2023-05-18T01:47:51.268Z,69.01
2023-05-18T01:48:51.274Z,68.46
2023-05-18T01:49:51.385Z,68.56
2023-05-18T01:50:51.435Z,68.56
2023-05-18T01:51:51.664Z,68.56
2023-05-18T01:52:51.606Z,68.46
2023-05-18T01:53:51.706Z,68.35
2023-05-18T01:54:51.786Z,68.15
2023-05-18T01:55:51.853Z,68.77
2023-05-18T01:56:51.997Z,68.66
2023-05-18T01:57:52.022Z,68.25
2023-05-18T01:58:52.139Z,68.66
2023-05-18T01:59:52.188Z,68.56
2023-05-18T02:00:52.291Z,68.15
2023-05-18T02:01:59.458Z,68.87
2023-05-18T02:02:53.584Z,68.25
2023-05-18T02:03:52.721Z,68.22
2023-05-18T02:04:52.646Z,68.35
2023-05-18T02:05:52.755Z,68.46
2023-05-18T02:06:52.810Z,68.77
2023-05-18T02:07:52.946Z,68.46
2023-05-18T02:08:52.963Z,68.35
2023-05-18T02:09:53.057Z,68.56
2023-05-18T02:10:53.122Z,68.98
2023-05-18T02:11:53.224Z,68.46
2023-05-18T02:12:53.343Z,68.56
2023-05-18T02:13:53.345Z,68.56
2023-05-18T02:14:53.452Z,69.18
2023-05-18T02:15:53.539Z,68.77
2023-05-18T02:16:53.600Z,68.46
2023-05-18T02:17:53.747Z,68.66
2023-05-18T02:18:53.832Z,68.46
2023-05-18T02:19:53.922Z,68.56
2023-05-18T02:20:53.987Z,68.66
2023-05-18T02:21:54.071Z,68.46
2023-05-18T02:22:54.190Z,68.35
2023-05-18T02:23:54.231Z,68.77
2023-05-18T02:24:54.338Z,68.77
2023-05-18T02:25:54.452Z,69.07
2023-05-18T02:26:54.500Z,68.98
2023-05-18T02:27:54.588Z,69.49
2023-05-18T02:28:54.680Z,69.52
2023-05-18T02:29:54.797Z,69.52
2023-05-18T02:30:54.881Z,69.62
2023-05-18T02:31:55.029Z,69.52
2023-05-18T02:32:55.057Z,69.93
2023-05-18T02:33:55.146Z,70.14
2023-05-18T02:34:55.242Z,70.34
2023-05-18T02:35:55.402Z,70.34
2023-05-18T02:36:55.417Z,70.28
2023-05-18T02:37:55.495Z,70.07
2023-05-18T02:38:55.588Z,70.28
2023-05-18T02:39:55.677Z,70.48
2023-05-18T02:40:55.795Z,70.79
2023-05-18T02:41:55.836Z,71.00
2023-05-18T02:42:55.976Z,70.68
2023-05-18T02:43:56.011Z,70.68
2023-05-18T02:44:56.120Z,70.68
2023-05-18T02:45:56.210Z,70.68
2023-05-18T02:46:56.305Z,71.41
2023-05-18T02:47:56.381Z,71.61
2023-05-18T02:48:56.460Z,71.30
2023-05-18T02:49:56.525Z,71.41
2023-05-18T02:50:56.590Z,71.20
2023-05-18T02:51:56.722Z,70.89
2023-05-18T02:53:04.295Z,71.20
2023-05-18T02:53:56.870Z,71.10
2023-05-18T02:54:56.970Z,71.00
2023-05-18T02:55:57.070Z,71.00
2023-05-18T02:56:57.185Z,70.79
2023-05-18T02:57:57.367Z,70.79
2023-05-18T02:58:57.329Z,70.79
2023-05-18T02:59:57.425Z,71.00
2023-05-18T03:00:57.523Z,70.79
2023-05-18T03:01:57.649Z,70.89
2023-05-18T03:02:57.828Z,70.89
2023-05-18T03:03:57.916Z,71.10
2023-05-18T03:04:57.869Z,71.41
2023-05-18T03:05:57.913Z,71.51
2023-05-18T03:06:58.009Z,71.41
2023-05-18T03:07:58.102Z,71.44
2023-05-18T03:08:58.199Z,71.44
2023-05-18T03:09:58.326Z,71.75
2023-05-18T03:10:58.381Z,71.85
2023-05-18T03:11:58.471Z,71.85
2023-05-18T03:12:58.590Z,71.75
2023-05-18T03:13:58.653Z,71.64
2023-05-18T03:14:58.753Z,71.64
2023-05-18T03:15:58.855Z,71.61
2023-05-18T03:16:58.978Z,71.64
2023-05-18T03:17:59.020Z,71.55
2023-05-18T03:18:59.377Z,71.85
2023-05-18T03:19:59.156Z,71.75
2023-05-18T03:20:59.202Z,71.64
2023-05-18T03:21:59.300Z,71.41
2023-05-18T03:22:59.392Z,71.64
2023-05-18T03:23:59.490Z,71.75
2023-05-18T03:24:59.614Z,71.75
2023-05-18T03:25:59.672Z,71.64
2023-05-18T03:26:59.786Z,71.55
2023-05-18T03:27:59.838Z,71.72
2023-05-18T03:28:59.990Z,71.34
2023-05-18T03:30:00.042Z,71.44
2023-05-18T03:31:00.193Z,71.55
2023-05-18T03:32:00.232Z,71.61
2023-05-18T03:33:00.422Z,71.61
2023-05-18T03:34:00.432Z,71.72
2023-05-18T03:35:00.523Z,71.72
2023-05-18T03:36:00.649Z,71.85
2023-05-18T03:37:00.706Z,71.85
2023-05-18T03:38:00.804Z,72.16
2023-05-18T03:39:00.893Z,71.95
2023-05-18T03:40:00.999Z,72.06
2023-05-18T03:41:01.127Z,72.16
2023-05-18T03:42:01.166Z,72.27
2023-05-18T03:43:01.307Z,72.27
2023-05-18T03:44:01.393Z,72.58
2023-05-18T03:45:01.425Z,72.27
2023-05-18T03:46:01.554Z,72.37
2023-05-18T03:47:01.616Z,72.37
2023-05-18T03:48:01.687Z,72.47
2023-05-18T03:49:01.732Z,72.47
2023-05-18T03:50:01.832Z,72.47
2023-05-18T03:51:01.940Z,72.37
2023-05-18T03:52:02.024Z,72.47
2023-05-18T03:53:02.133Z,72.37
2023-05-18T03:54:02.194Z,72.47
2023-05-18T03:55:02.244Z,72.47
2023-05-18T03:56:02.353Z,72.44
2023-05-18T03:57:02.437Z,72.58
2023-05-18T03:58:02.573Z,72.99
2023-05-18T03:59:02.638Z,72.75
2023-05-18T04:00:02.706Z,72.58
2023-05-18T04:01:02.845Z,72.75
2023-05-18T04:02:02.924Z,72.85
2023-05-18T04:03:03.112Z,72.88
2023-05-18T04:04:03.119Z,72.85
2023-05-18T04:05:03.189Z,72.64
2023-05-18T04:06:03.244Z,72.64
2023-05-18T04:07:03.301Z,72.64
2023-05-18T04:08:03.404Z,72.88
2023-05-18T04:09:03.518Z,72.75
2023-05-18T04:10:03.573Z,72.75
2023-05-18T04:11:03.665Z,72.85
2023-05-18T04:12:03.777Z,72.96
2023-05-18T04:13:03.843Z,73.05
2023-05-18T04:14:03.960Z,73.05
2023-05-18T04:15:04.049Z,73.05
2023-05-18T04:16:04.094Z,73.16
2023-05-18T04:17:04.181Z,73.47
2023-05-18T04:18:04.288Z,73.26
2023-05-18T04:19:07.096Z,73.47
2023-05-18T04:20:04.476Z,73.50
2023-05-18T04:21:04.522Z,73.26
2023-05-18T04:22:04.614Z,73.26
2023-05-18T04:23:04.703Z,73.36
2023-05-18T04:24:04.816Z,73.36
2023-05-18T04:25:04.912Z,73.26
2023-05-18T04:26:05.008Z,73.05
2023-05-18T04:27:05.065Z,72.85
2023-05-18T04:28:05.172Z,72.96
2023-05-18T04:29:05.247Z,72.85
2023-05-18T04:30:05.353Z,72.85
2023-05-18T04:31:05.485Z,72.85
2023-05-18T04:32:05.589Z,72.81
2023-05-18T04:33:05.653Z,72.85
2023-05-18T04:34:05.718Z,72.92
2023-05-18T04:35:05.816Z,72.71
2023-05-18T04:36:05.937Z,72.61
2023-05-18T04:37:05.980Z,72.92
2023-05-18T04:38:06.088Z,72.61
2023-05-18T04:39:06.179Z,72.27
2023-05-18T04:40:06.276Z,72.16
2023-05-18T04:41:06.400Z,71.86
2023-05-18T04:42:06.459Z,71.75
2023-05-18T04:43:06.547Z,71.75
2023-05-18T04:44:06.646Z,71.55
2023-05-18T04:45:06.744Z,71.31
2023-05-18T04:46:06.890Z,71.00
2023-05-18T04:47:06.932Z,70.90
2023-05-18T04:48:07.087Z,70.90
2023-05-18T04:49:07.117Z,70.56
2023-05-18T04:50:07.221Z,70.76
2023-05-18T04:51:07.275Z,70.14
2023-05-18T04:52:07.401Z,70.14
2023-05-18T04:53:07.488Z,70.04
2023-05-18T04:54:07.535Z,69.90
2023-05-18T04:55:07.632Z,69.49
2023-05-18T04:56:07.737Z,69.39
2023-05-18T04:57:07.830Z,69.70
2023-05-18T04:58:07.958Z,69.80
2023-05-18T04:59:07.994Z,68.98
2023-05-18T05:00:08.085Z,69.39
2023-05-18T05:01:08.232Z,69.60
2023-05-18T05:02:08.255Z,69.05
2023-05-18T05:03:08.442Z,68.74
2023-05-18T05:04:08.449Z,69.36
2023-05-18T05:05:08.534Z,68.54
2023-05-18T05:06:08.625Z,68.51
2023-05-18T05:07:08.732Z,67.99
2023-05-18T05:08:08.826Z,67.79
2023-05-18T05:09:08.897Z,67.58
2023-05-18T05:10:08.983Z,68.19
2023-05-18T05:11:09.096Z,67.55
2023-05-18T05:12:09.172Z,67.35
2023-05-18T05:13:09.324Z,67.24
2023-05-18T05:14:09.368Z,66.63
2023-05-18T05:15:09.481Z,66.83
2023-05-18T05:16:09.576Z,67.14
2023-05-18T05:17:09.666Z,66.83
2023-05-18T05:18:09.802Z,66.83
2023-05-18T05:19:09.984Z,66.83
2023-05-18T05:20:09.918Z,66.70
2023-05-18T05:21:10.021Z,67.72
2023-05-18T05:22:10.126Z,67.32
2023-05-18T05:23:10.282Z,66.28
2023-05-18T05:24:10.318Z,66.39
2023-05-18T05:25:10.368Z,66.08
2023-05-18T05:26:10.449Z,66.39
2023-05-18T05:27:10.496Z,66.49
2023-05-18T05:28:10.578Z,66.19
2023-05-18T05:29:10.707Z,66.36
2023-05-18T05:30:10.766Z,65.95
2023-05-18T05:31:10.890Z,65.95
2023-05-18T05:32:10.949Z,65.64
2023-05-18T05:33:11.066Z,65.95
2023-05-18T05:34:11.075Z,66.36
2023-05-18T05:35:11.157Z,65.84
2023-05-18T05:36:11.250Z,65.84
2023-05-18T05:37:11.380Z,65.95
2023-05-18T05:38:11.437Z,65.74
2023-05-18T05:39:11.522Z,65.81
2023-05-18T05:40:11.644Z,65.51
2023-05-18T05:41:11.742Z,65.20
2023-05-18T05:42:11.797Z,64.82
2023-05-18T05:43:11.892Z,65.23
2023-05-18T05:44:11.984Z,65.44
2023-05-18T05:45:12.084Z,65.33
2023-05-18T05:46:12.204Z,65.54
2023-05-18T05:47:12.385Z,65.23
2023-05-18T05:48:13.879Z,65.95
2023-05-18T05:49:12.458Z,65.74
2023-05-18T05:50:12.532Z,65.84
2023-05-18T05:51:12.602Z,65.03
2023-05-18T05:52:12.655Z,66.12
2023-05-18T05:53:12.871Z,65.20
2023-05-18T05:54:12.878Z,64.69
2023-05-18T05:55:12.926Z,64.48
2023-05-18T05:56:13.040Z,64.45
2023-05-18T05:57:13.108Z,64.14
2023-05-18T05:58:13.265Z,64.56
2023-05-18T05:59:13.274Z,64.65
2023-05-18T06:00:13.397Z,63.64
2023-05-18T06:01:13.472Z,64.22
2023-05-18T06:02:13.607Z,63.81
2023-05-18T06:03:13.643Z,64.62
2023-05-18T06:04:13.709Z,64.94
2023-05-18T06:05:13.790Z,63.09
2023-05-18T06:06:13.829Z,63.81
2023-05-18T06:07:13.900Z,64.18
2023-05-18T06:08:13.989Z,63.47
2023-05-18T06:09:14.070Z,63.06
2023-05-18T06:10:14.182Z,63.57
2023-05-18T06:11:14.281Z,63.57
2023-05-18T06:12:14.274Z,62.11
2023-05-18T06:13:14.328Z,61.80
2023-05-18T06:14:14.437Z,62.21
2023-05-18T06:15:14.468Z,62.11
2023-05-18T06:16:14.600Z,63.31
2023-05-18T06:17:14.626Z,61.57
2023-05-18T06:18:14.764Z,61.57
2023-05-18T06:19:14.871Z,61.26
2023-05-18T06:20:14.834Z,60.42
2023-05-18T06:21:15.025Z,60.62
2023-05-18T06:22:15.039Z,60.01
2023-05-18T06:23:15.066Z,61.95
2023-05-18T06:24:15.135Z,60.60
2023-05-18T06:25:15.201Z,61.41
2023-05-18T06:26:15.281Z,59.98
2023-05-18T06:27:15.398Z,59.57
2023-05-18T06:28:15.447Z,61.82
2023-05-18T06:29:15.512Z,61.28
2023-05-18T06:30:15.606Z,59.03
2023-05-18T06:31:15.673Z,58.42
2023-05-18T06:32:15.768Z,57.91
2023-05-18T06:33:15.784Z,58.22
2023-05-18T06:34:15.829Z,58.52
2023-05-18T06:35:15.892Z,58.32
2023-05-18T06:36:15.993Z,59.23
2023-05-18T06:37:16.053Z,58.29
2023-05-18T06:38:16.156Z,56.53
2023-05-18T06:39:16.190Z,56.73
2023-05-18T06:40:16.251Z,57.86
2023-05-18T06:41:16.312Z,57.62
2023-05-18T06:42:16.388Z,57.01
2023-05-18T06:43:16.480Z,58.21
2023-05-18T06:44:16.548Z,57.19
2023-05-18T06:45:16.617Z,55.66
2023-05-18T06:46:16.682Z,55.26
2023-05-18T06:47:16.813Z,56.17
2023-05-18T06:48:16.873Z,56.78
2023-05-18T06:49:16.952Z,55.56
2023-05-18T06:50:17.005Z,54.94
2023-05-18T06:51:17.085Z,55.18
2023-05-18T06:52:17.203Z,55.69
2023-05-18T06:53:17.229Z,56.88
2023-05-18T06:54:17.295Z,56.58
2023-05-18T06:55:17.357Z,56.78
2023-05-18T06:56:17.424Z,57.39
2023-05-18T06:57:17.526Z,55.87
2023-05-18T06:58:17.575Z,56.37
2023-05-18T06:59:17.628Z,55.76
2023-05-18T07:00:17.701Z,56.27
2023-05-18T07:01:17.837Z,55.56
2023-05-18T07:02:17.866Z,56.37
2023-05-18T07:03:18.003Z,56.68
2023-05-18T07:04:17.991Z,55.48
2023-05-18T07:05:18.057Z,56.78
2023-05-18T07:06:18.124Z,55.97
2023-05-18T07:07:18.273Z,55.26
2023-05-18T07:08:18.309Z,56.27
2023-05-18T07:09:18.359Z,54.54
2023-05-18T07:10:18.415Z,54.92
2023-05-18T07:11:18.479Z,53.47
2023-05-18T07:12:18.597Z,52.96
2023-05-18T07:13:18.619Z,53.27
2023-05-18T07:14:18.746Z,52.25
2023-05-18T07:15:18.781Z,55.10
2023-05-18T07:16:18.866Z,54.69
2023-05-18T07:17:18.911Z,54.18
2023-05-18T07:18:19.001Z,53.27
2023-05-18T07:19:19.164Z,52.33
2023-05-18T07:20:19.134Z,53.75
2023-05-18T07:21:19.193Z,52.00
2023-05-18T07:22:19.262Z,51.31
2023-05-18T07:23:19.329Z,52.20
2023-05-18T07:24:19.433Z,52.02
2023-05-18T07:25:19.501Z,52.02
2023-05-18T07:26:19.591Z,51.92
2023-05-18T07:27:19.650Z,51.92
2023-05-18T07:28:19.705Z,51.18
2023-05-18T07:29:19.777Z,52.10
2023-05-18T07:30:19.854Z,52.08
2023-05-18T07:31:19.963Z,52.48
2023-05-18T07:32:20.030Z,50.45
2023-05-18T07:33:20.159Z,51.06
2023-05-18T07:34:20.156Z,53.80
2023-05-18T07:35:20.221Z,52.89
2023-05-18T07:36:20.290Z,50.95
2023-05-18T07:37:20.391Z,49.94
2023-05-18T07:38:20.417Z,49.76
2023-05-18T07:39:20.487Z,50.06
2023-05-18T07:40:20.549Z,49.96
2023-05-18T07:41:20.619Z,50.14
2023-05-18T07:42:20.723Z,50.24
2023-05-18T07:43:20.766Z,50.14
2023-05-18T07:44:20.848Z,49.43
2023-05-18T07:45:20.907Z,47.92
2023-05-18T07:46:21.015Z,49.53
2023-05-18T07:47:21.064Z,51.28
2023-05-18T07:48:21.125Z,49.96
2023-05-18T07:49:21.245Z,49.96
2023-05-18T07:50:21.262Z,49.53
2023-05-18T07:51:21.325Z,51.16
2023-05-18T07:52:21.388Z,48.59
2023-05-18T07:53:21.555Z,48.28
2023-05-18T07:54:21.640Z,50.01
2023-05-18T07:55:21.639Z,49.71
2023-05-18T07:56:21.732Z,48.28
2023-05-18T07:57:21.816Z,49.81
2023-05-18T07:58:21.928Z,48.19
2023-05-18T07:59:22.000Z,48.82
2023-05-18T08:00:22.055Z,50.65
2023-05-18T08:01:22.120Z,48.74
2023-05-18T08:02:22.214Z,48.84
2023-05-18T08:03:22.331Z,47.85
2023-05-18T08:04:22.376Z,47.95
2023-05-18T08:05:22.474Z,49.19
2023-05-18T08:06:22.565Z,50.31
2023-05-18T08:07:22.588Z,50.39
2023-05-18T08:08:22.685Z,45.07
2023-05-18T08:09:22.799Z,45.87
2023-05-18T08:10:22.875Z,44.54
2023-05-18T08:11:22.945Z,44.75
2023-05-18T08:12:23.022Z,46.05
2023-05-18T08:13:23.088Z,46.97
2023-05-18T08:14:23.268Z,45.84
2023-05-18T08:15:23.271Z,47.27
2023-05-18T08:16:23.362Z,46.36
2023-05-18T08:17:23.421Z,46.66
2023-05-18T08:18:23.541Z,49.40
2023-05-18T08:19:23.693Z,47.67
2023-05-18T08:20:23.673Z,46.68
2023-05-18T08:21:23.747Z,46.98
2023-05-18T08:22:23.852Z,47.70
2023-05-18T08:23:23.905Z,48.31
2023-05-18T08:24:23.950Z,46.28
2023-05-18T08:25:24.035Z,45.32
2023-05-18T08:26:24.232Z,44.79
2023-05-18T08:27:24.211Z,46.19
2023-05-18T08:28:24.271Z,46.62
2023-05-18T08:29:24.339Z,44.71
2023-05-18T08:30:24.509Z,44.51
2023-05-18T08:31:24.517Z,45.01
2023-05-18T08:32:24.589Z,45.54
2023-05-18T08:33:24.684Z,45.14
2023-05-18T08:34:24.775Z,45.34
2023-05-18T08:35:24.809Z,46.45
2023-05-18T08:36:24.880Z,47.37
2023-05-18T08:37:24.941Z,45.75
2023-05-18T08:38:25.045Z,46.56
2023-05-18T08:39:25.181Z,46.07
2023-05-18T08:40:25.207Z,44.54
2023-05-18T08:41:25.274Z,44.22
2023-05-18T08:42:27.690Z,44.81
2023-05-18T08:43:27.807Z,45.54
2023-05-18T08:44:25.531Z,43.61
2023-05-18T08:45:25.630Z,43.93
2023-05-18T08:46:25.652Z,45.06
2023-05-18T08:47:25.748Z,43.53
2023-05-18T08:48:28.018Z,44.83
2023-05-18T08:49:25.877Z,43.29
2023-05-18T08:50:26.051Z,44.48
2023-05-18T08:51:26.026Z,43.87
2023-05-18T08:52:26.083Z,45.70
2023-05-18T08:53:33.669Z,44.56
2023-05-18T08:54:26.226Z,43.57
2023-05-18T08:55:26.348Z,45.50
2023-05-18T08:56:26.465Z,44.91
2023-05-18T08:57:26.531Z,44.40
2023-05-18T08:58:26.589Z,46.33
2023-05-18T08:59:26.692Z,43.69
2023-05-18T09:00:26.839Z,43.49
2023-05-18T09:01:26.900Z,44.40
2023-05-18T09:02:26.941Z,44.68
2023-05-18T09:03:26.983Z,43.69
2023-05-18T09:04:27.092Z,44.63
2023-05-18T09:05:27.189Z,44.83
2023-05-18T09:06:27.239Z,45.14
2023-05-18T09:07:27.297Z,45.64
2023-05-18T09:08:27.390Z,45.32
2023-05-18T09:09:27.425Z,46.13
2023-05-18T09:10:27.492Z,44.20
2023-05-18T09:11:27.645Z,45.42
2023-05-18T09:12:27.714Z,45.93
2023-05-18T09:13:27.791Z,45.42
2023-05-18T09:14:27.853Z,45.64
2023-05-18T09:15:27.905Z,46.76
2023-05-18T09:16:28.098Z,46.86
2023-05-18T09:17:28.140Z,47.55
2023-05-18T09:18:28.612Z,45.62
2023-05-18T09:19:28.219Z,46.03
2023-05-18T09:20:28.265Z,44.71
2023-05-18T09:21:28.362Z,44.97
2023-05-18T09:22:28.453Z,45.07
2023-05-18T09:23:28.505Z,47.08
2023-05-18T09:24:28.606Z,43.41
2023-05-18T09:25:28.918Z,47.24
2023-05-18T09:26:28.795Z,43.29
2023-05-18T09:27:28.901Z,41.66
2023-05-18T09:28:28.980Z,41.66
2023-05-18T09:29:30.220Z,42.96
2023-05-18T09:30:29.126Z,42.43
2023-05-18T09:31:29.223Z,43.55
2023-05-18T09:32:29.375Z,42.41
2023-05-18T09:33:29.468Z,39.37
2023-05-18T09:34:29.444Z,39.88
2023-05-18T09:35:29.776Z,39.58
2023-05-18T09:36:29.586Z,41.08
2023-05-18T09:37:29.696Z,38.45
2023-05-18T09:38:29.803Z,41.66
2023-05-18T09:39:29.838Z,40.53
2023-05-18T09:40:29.903Z,40.41
2023-05-18T09:41:29.998Z,37.60
2023-05-18T09:42:30.079Z,38.95
2023-05-18T09:43:30.166Z,41.72
2023-05-18T09:44:30.193Z,41.34
2023-05-18T09:45:30.568Z,42.37
2023-05-18T09:46:30.392Z,42.78
2023-05-18T09:47:30.495Z,43.53
2023-05-18T09:48:30.544Z,45.15
2023-05-18T09:49:30.643Z,45.17
2023-05-18T09:50:30.707Z,45.37
2023-05-18T09:51:30.778Z,43.24
2023-05-18T09:52:30.836Z,43.35
2023-05-18T09:53:30.944Z,42.41
2023-05-18T09:54:31.156Z,42.61
2023-05-18T09:55:31.383Z,41.19
2023-05-18T09:56:31.235Z,43.14
2023-05-18T09:57:31.287Z,44.67
2023-05-18T09:58:31.353Z,45.37
2023-05-18T09:59:31.462Z,44.06
2023-05-18T10:00:31.500Z,41.62
2023-05-18T10:01:31.731Z,42.60
2023-05-18T10:02:31.667Z,41.48
2023-05-18T10:03:31.758Z,41.17
2023-05-18T10:04:32.026Z,40.99
2023-05-18T10:05:34.851Z,41.80
2023-05-18T10:06:31.946Z,40.99
2023-05-18T10:07:32.030Z,41.50
2023-05-18T10:08:32.133Z,42.82
2023-05-18T10:09:32.226Z,41.48
2023-05-18T10:10:32.461Z,41.09
2023-05-18T10:11:32.366Z,40.89
2023-05-18T10:12:32.453Z,40.59
2023-05-18T10:13:32.530Z,41.38
2023-05-18T10:14:32.608Z,41.86
2023-05-18T10:15:32.864Z,41.03
2023-05-18T10:16:32.806Z,42.21
2023-05-18T10:17:32.918Z,44.09
2023-05-18T10:18:32.904Z,40.75
2023-05-18T10:19:32.982Z,38.73
2023-05-18T10:20:33.186Z,40.57
2023-05-18T10:21:33.135Z,37.65
2023-05-18T10:22:33.207Z,38.40
2023-05-18T10:23:33.276Z,39.33
2023-05-18T10:24:33.341Z,39.33
2023-05-18T10:25:33.457Z,38.72
2023-05-18T10:26:33.498Z,39.84
2023-05-18T10:27:33.558Z,41.77
2023-05-18T10:28:33.613Z,40.22
2023-05-18T10:29:33.685Z,39.90
2023-05-18T10:30:34.026Z,38.77
2023-05-18T10:31:33.932Z,39.88
2023-05-18T10:32:33.945Z,37.86
2023-05-18T10:33:34.046Z,39.01
2023-05-18T10:34:34.076Z,39.84
2023-05-18T10:35:34.155Z,40.12
2023-05-18T10:36:34.250Z,40.00
2023-05-18T10:37:34.297Z,41.38
2023-05-18T10:38:34.372Z,38.93
2023-05-18T10:39:34.425Z,38.61
2023-05-18T10:40:34.530Z,38.82
2023-05-18T10:41:34.639Z,37.62
2023-05-18T10:42:34.687Z,40.66
2023-05-18T10:43:34.755Z,38.31
2023-05-18T10:44:34.823Z,39.40
2023-05-18T10:45:34.930Z,38.41
2023-05-18T10:46:35.109Z,38.84
2023-05-18T10:47:35.301Z,38.53
2023-05-18T10:48:35.170Z,38.95
2023-05-18T10:49:35.271Z,41.08
2023-05-18T10:50:35.304Z,37.84
2023-05-18T10:51:35.383Z,39.14
2023-05-18T10:52:35.485Z,39.62
2023-05-18T10:53:35.510Z,38.39
2023-05-18T10:54:35.632Z,39.20
2023-05-18T10:55:35.687Z,37.26
2023-05-18T10:56:35.770Z,36.86
2023-05-18T10:57:35.950Z,38.17
2023-05-18T10:58:35.917Z,37.77
2023-05-18T10:59:36.056Z,36.76
2023-05-18T11:00:36.103Z,37.97
2023-05-18T11:01:36.240Z,37.85
2023-05-18T11:02:36.285Z,40.48
2023-05-18T11:03:36.366Z,39.63
2023-05-18T11:04:36.480Z,35.52
2023-05-18T11:05:36.517Z,37.31
2023-05-18T11:06:36.595Z,36.81
2023-05-18T11:07:36.665Z,35.10
2023-05-18T11:08:36.772Z,35.31
2023-05-18T11:09:36.837Z,35.63
2023-05-18T11:10:36.867Z,37.93
2023-05-18T11:11:37.002Z,34.23
2023-05-18T11:12:37.039Z,35.86
2023-05-18T11:13:37.134Z,36.86
2023-05-18T11:14:37.196Z,36.76
2023-05-18T11:15:37.271Z,37.06
2023-05-18T11:16:37.430Z,38.46
2023-05-18T11:17:37.442Z,37.15
2023-05-18T11:18:37.495Z,37.85
2023-05-18T11:19:37.546Z,36.35
2023-05-18T11:20:37.649Z,37.95
2023-05-18T11:21:37.714Z,35.83
2023-05-18T11:22:37.796Z,37.87
2023-05-18T11:23:37.873Z,37.18
2023-05-18T11:24:37.934Z,37.28
2023-05-18T11:25:38.016Z,39.22
2023-05-18T11:26:38.140Z,35.60
2023-05-18T11:27:38.180Z,38.31
2023-05-18T11:28:38.247Z,36.25
2023-05-18T11:29:38.321Z,37.97
2023-05-18T11:30:38.401Z,37.87
2023-05-18T11:31:38.510Z,38.66
2023-05-18T11:32:38.614Z,36.34
2023-05-18T11:33:38.699Z,36.13
2023-05-18T11:34:39.868Z,39.18
2023-05-18T11:35:38.814Z,37.06
2023-05-18T11:36:38.837Z,37.06
2023-05-18T11:37:38.987Z,36.47
2023-05-18T11:38:38.970Z,36.19
2023-05-18T11:39:47.902Z,37.70
2023-05-18T11:40:40.153Z,37.99
2023-05-18T11:41:39.294Z,36.19
2023-05-18T11:42:39.358Z,36.69
2023-05-18T11:43:39.410Z,36.71
2023-05-18T11:44:39.468Z,37.94
2023-05-18T11:45:39.539Z,39.26
2023-05-18T11:46:39.678Z,40.06
2023-05-18T11:47:39.761Z,39.56
2023-05-18T11:48:39.875Z,38.57
2023-05-18T11:49:39.870Z,39.58
2023-05-18T11:50:39.988Z,38.95
2023-05-18T11:51:40.109Z,37.72
2023-05-18T11:52:40.133Z,40.53
2023-05-18T11:53:40.191Z,38.29
2023-05-18T11:54:40.294Z,36.55
2023-05-18T11:55:40.368Z,37.66
2023-05-18T11:56:40.471Z,35.83
2023-05-18T11:57:40.513Z,37.73
2023-05-18T11:58:40.571Z,34.99
2023-05-18T11:59:40.694Z,35.80
2023-05-18T12:00:40.758Z,34.88
2023-05-18T12:01:40.850Z,35.66
2023-05-18T12:02:41.038Z,35.95
2023-05-18T12:03:46.195Z,34.52
2023-05-18T12:04:41.320Z,34.72
2023-05-18T12:05:41.209Z,32.81
2023-05-18T12:06:41.259Z,33.31
2023-05-18T12:07:41.394Z,33.33
2023-05-18T12:08:41.405Z,33.72
2023-05-18T12:09:41.529Z,33.51
2023-05-18T12:10:41.605Z,34.71
2023-05-18T12:11:41.650Z,34.22
2023-05-18T12:12:41.762Z,33.65
2023-05-18T12:13:41.810Z,34.57
2023-05-18T12:14:41.863Z,34.69
2023-05-18T12:15:41.916Z,35.41
2023-05-18T12:16:42.016Z,35.53
2023-05-18T12:17:42.105Z,34.74
2023-05-18T12:18:42.218Z,36.94
2023-05-18T12:19:42.210Z,37.93
2023-05-18T12:20:42.307Z,37.82
2023-05-18T12:21:42.404Z,34.97
2023-05-18T12:22:42.539Z,34.45
2023-05-18T12:23:42.618Z,33.35
2023-05-18T12:24:42.703Z,37.87
2023-05-18T12:25:42.803Z,35.93
2023-05-18T12:26:42.902Z,35.41
2023-05-18T12:27:43.011Z,33.22
2023-05-18T12:28:43.069Z,34.84
2023-05-18T12:29:43.197Z,33.23
2023-05-18T12:30:43.260Z,34.77
2023-05-18T12:31:43.321Z,33.88
2023-05-18T12:32:43.401Z,34.22
2023-05-18T12:33:43.513Z,35.04
2023-05-18T12:34:43.571Z,36.05
2023-05-18T12:35:43.670Z,36.22
2023-05-18T12:36:43.710Z,37.41
2023-05-18T12:37:45.204Z,33.85
2023-05-18T12:38:43.915Z,36.15
2023-05-18T12:39:43.972Z,34.52
2023-05-18T12:40:44.078Z,33.03
2023-05-18T12:41:44.102Z,35.65
2023-05-18T12:42:45.843Z,36.86
2023-05-18T12:43:44.323Z,34.64
2023-05-18T12:44:44.348Z,33.94
2023-05-18T12:45:44.450Z,33.55
2023-05-18T12:46:44.547Z,34.56
2023-05-18T12:47:44.635Z,35.06
2023-05-18T12:48:44.683Z,34.44
2023-05-18T12:49:44.783Z,34.24
2023-05-18T12:50:46.203Z,34.72
2023-05-18T12:51:44.912Z,35.03
2023-05-18T12:52:44.969Z,35.25
2023-05-18T12:53:45.023Z,35.45